Terminal Aerodrome Forecast
Issued by NWS

Home | Current Version | Previous Version | Graphics & Text | Print | Product List | Glossary On
Versions: 1 2 3 4 5 6 7 8 9 10 11 12 13 14 15 16
000
FTUS43 KTOP 262325
TAFMHK
TAF
KMHK 262325Z 2700/2724 04003KT P6SM SKC
     FM270500 09003KT P6SM SCT040 SCT250
     FM271400 10006KT P6SM SCT020 BKN025
     FM271600 11007KT P6SM VCTS SCT025 BKN035CB=

USA.gov is the U.S. government's official web portal to all federal, state and local government web resources and services.